KGLD/GLD METAR and TAF weather

Enter ICAO airport designator
Station Type Date Time Source
KGLD METAR 2022/12/04 05:53 UTC NOAA

KGLD 040553Z AUTO A3014 RMK AO2 SLPNO 56015 PWINO FZRANO $


Station Type Date Time Source
KGLD Decoded METAR 2022/12/04 05:53 UTC NOAA

GOODLAND RENNER FIELD, KS, United States (KGLD) 39-22N 101-42W 1114M
Dec 04, 2022 - 12:53 AM EST / 2022.12.04 0553 UTC
Pressure (altimeter): 30.14 in. Hg (1020 hPa)
Pressure tendency: 0.04 inches (1.5 hPa) lower than three hours ago
ob: KGLD 040553Z AUTO A3014 RMK AO2 SLPNO 56015 PWINO FZRANO
cycle: 6

Station Type Date Time Source
KGLD TAF 2022/12/04 06:22 UTC NOAA

TAF KGLD 040520Z 0406/0506 24008KT P6SM OVC270
FM040800 30008KT P6SM BKN270
FM041600 VRB05KT P6SM SCT280
FM042100 20008KT P6SM SCT280
AMD NOT SKED

Example: see airport list